sensor_id;sensor_type;location;lat;lon;timestamp;P1;durP1;ratioP1;P2;durP2;ratioP2
40541;SDS011;49288;52.194;5.676;2023-05-07T00:01:52;10.65;;;6.40;;
40541;SDS011;49288;52.194;5.676;2023-05-07T00:06:55;9.63;;;6.20;;
40541;SDS011;49288;52.194;5.676;2023-05-07T00:11:58;11.07;;;7.82;;
40541;SDS011;49288;52.194;5.676;2023-05-07T00:17:00;9.07;;;6.00;;
40541;SDS011;49288;52.194;5.676;2023-05-07T00:22:04;10.05;;;6.93;;
40541;SDS011;49288;52.194;5.676;2023-05-07T00:27:07;12.35;;;9.25;;
40541;SDS011;49288;52.194;5.676;2023-05-07T00:32:10;12.45;;;8.40;;
40541;SDS011;49288;52.194;5.676;2023-05-07T00:37:13;11.30;;;7.65;;
40541;SDS011;49288;52.194;5.676;2023-05-07T00:42:15;9.07;;;7.05;;
40541;SDS011;49288;52.194;5.676;2023-05-07T00:47:18;11.85;;;6.60;;
40541;SDS011;49288;52.194;5.676;2023-05-07T00:52:22;10.43;;;7.07;;
40541;SDS011;49288;52.194;5.676;2023-05-07T00:57:27;12.95;;;8.63;;
40541;SDS011;49288;52.194;5.676;2023-05-07T01:02:30;13.55;;;9.13;;
40541;SDS011;49288;52.194;5.676;2023-05-07T01:07:35;12.48;;;8.45;;
40541;SDS011;49288;52.194;5.676;2023-05-07T01:12:39;11.90;;;7.30;;
40541;SDS011;49288;52.194;5.676;2023-05-07T01:17:42;13.97;;;8.53;;
40541;SDS011;49288;52.194;5.676;2023-05-07T01:22:58;12.75;;;8.88;;
40541;SDS011;49288;52.194;5.676;2023-05-07T01:28:02;11.93;;;8.80;;
40541;SDS011;49288;52.194;5.676;2023-05-07T01:33:10;16.20;;;9.88;;
40541;SDS011;49288;52.194;5.676;2023-05-07T01:38:15;16.25;;;8.00;;
40541;SDS011;49288;52.194;5.676;2023-05-07T01:43:18;13.30;;;7.33;;
40541;SDS011;49288;52.194;5.676;2023-05-07T01:48:24;15.23;;;8.50;;
40541;SDS011;49288;52.194;5.676;2023-05-07T01:53:27;10.93;;;7.30;;
40541;SDS011;49288;52.194;5.676;2023-05-07T01:58:34;12.52;;;8.35;;
40541;SDS011;49288;52.194;5.676;2023-05-07T02:03:36;13.52;;;7.70;;
40541;SDS011;49288;52.194;5.676;2023-05-07T02:08:46;18.45;;;9.27;;
40541;SDS011;49288;52.194;5.676;2023-05-07T02:13:50;14.68;;;9.32;;
40541;SDS011;49288;52.194;5.676;2023-05-07T02:18:56;14.88;;;10.32;;
40541;SDS011;49288;52.194;5.676;2023-05-07T02:29:03;16.10;;;10.45;;
40541;SDS011;49288;52.194;5.676;2023-05-07T02:34:06;15.00;;;9.88;;
40541;SDS011;49288;52.194;5.676;2023-05-07T02:39:09;13.20;;;7.53;;
40541;SDS011;49288;52.194;5.676;2023-05-07T02:44:13;20.95;;;12.38;;
40541;SDS011;49288;52.194;5.676;2023-05-07T02:49:16;21.40;;;13.97;;
40541;SDS011;49288;52.194;5.676;2023-05-07T02:54:22;17.33;;;11.32;;
40541;SDS011;49288;52.194;5.676;2023-05-07T02:59:25;15.70;;;11.10;;
40541;SDS011;49288;52.194;5.676;2023-05-07T03:04:29;13.35;;;8.07;;
40541;SDS011;49288;52.194;5.676;2023-05-07T03:09:32;13.13;;;9.35;;
40541;SDS011;49288;52.194;5.676;2023-05-07T03:14:35;16.40;;;11.25;;
40541;SDS011;49288;52.194;5.676;2023-05-07T03:19:37;14.35;;;9.07;;
40541;SDS011;49288;52.194;5.676;2023-05-07T03:24:40;19.73;;;11.75;;
40541;SDS011;49288;52.194;5.676;2023-05-07T03:29:44;16.60;;;11.48;;
40541;SDS011;49288;52.194;5.676;2023-05-07T03:34:47;19.30;;;13.63;;
40541;SDS011;49288;52.194;5.676;2023-05-07T03:39:50;20.58;;;13.25;;
40541;SDS011;49288;52.194;5.676;2023-05-07T03:44:54;12.63;;;8.45;;
40541;SDS011;49288;52.194;5.676;2023-05-07T03:49:59;21.63;;;14.10;;
40541;SDS011;49288;52.194;5.676;2023-05-07T03:55:03;21.73;;;14.37;;
40541;SDS011;49288;52.194;5.676;2023-05-07T04:00:09;22.50;;;13.90;;
40541;SDS011;49288;52.194;5.676;2023-05-07T04:05:21;32.83;;;18.58;;
40541;SDS011;49288;52.194;5.676;2023-05-07T04:10:29;32.88;;;21.35;;
40541;SDS011;49288;52.194;5.676;2023-05-07T04:15:35;43.53;;;25.83;;
40541;SDS011;49288;52.194;5.676;2023-05-07T04:20:40;41.58;;;25.63;;
40541;SDS011;49288;52.194;5.676;2023-05-07T04:25:47;38.78;;;25.27;;
40541;SDS011;49288;52.194;5.676;2023-05-07T04:31:05;35.33;;;22.92;;
40541;SDS011;49288;52.194;5.676;2023-05-07T04:36:10;45.80;;;27.42;;
40541;SDS011;49288;52.194;5.676;2023-05-07T04:41:20;46.75;;;29.63;;
40541;SDS011;49288;52.194;5.676;2023-05-07T04:46:23;56.85;;;31.88;;
40541;SDS011;49288;52.194;5.676;2023-05-07T04:51:30;52.40;;;31.23;;
40541;SDS011;49288;52.194;5.676;2023-05-07T04:56:35;48.53;;;29.40;;
40541;SDS011;49288;52.194;5.676;2023-05-07T05:01:38;60.58;;;32.88;;
40541;SDS011;49288;52.194;5.676;2023-05-07T05:06:41;50.15;;;29.67;;
40541;SDS011;49288;52.194;5.676;2023-05-07T05:11:45;54.85;;;33.47;;
40541;SDS011;49288;52.194;5.676;2023-05-07T05:16:49;55.97;;;32.35;;
40541;SDS011;49288;52.194;5.676;2023-05-07T05:21:52;56.72;;;33.30;;
40541;SDS011;49288;52.194;5.676;2023-05-07T05:26:55;59.78;;;35.08;;
40541;SDS011;49288;52.194;5.676;2023-05-07T05:31:59;56.00;;;31.95;;
40541;SDS011;49288;52.194;5.676;2023-05-07T05:37:04;65.95;;;36.25;;
40541;SDS011;49288;52.194;5.676;2023-05-07T05:42:09;61.63;;;37.15;;
40541;SDS011;49288;52.194;5.676;2023-05-07T05:47:12;56.25;;;34.28;;
40541;SDS011;49288;52.194;5.676;2023-05-07T05:52:15;62.60;;;36.90;;
40541;SDS011;49288;52.194;5.676;2023-05-07T05:57:20;63.17;;;39.88;;
40541;SDS011;49288;52.194;5.676;2023-05-07T06:02:27;54.90;;;34.95;;
40541;SDS011;49288;52.194;5.676;2023-05-07T06:07:32;59.08;;;36.08;;
40541;SDS011;49288;52.194;5.676;2023-05-07T06:12:34;59.70;;;36.40;;
40541;SDS011;49288;52.194;5.676;2023-05-07T06:17:37;53.30;;;32.47;;
40541;SDS011;49288;52.194;5.676;2023-05-07T06:22:41;59.28;;;37.00;;
40541;SDS011;49288;52.194;5.676;2023-05-07T06:27:48;57.75;;;34.92;;
40541;SDS011;49288;52.194;5.676;2023-05-07T06:32:51;55.00;;;33.97;;
40541;SDS011;49288;52.194;5.676;2023-05-07T06:37:54;53.65;;;33.75;;
40541;SDS011;49288;52.194;5.676;2023-05-07T06:43:01;59.95;;;34.08;;
40541;SDS011;49288;52.194;5.676;2023-05-07T06:48:24;50.47;;;28.40;;
40541;SDS011;49288;52.194;5.676;2023-05-07T06:53:35;54.63;;;33.22;;
40541;SDS011;49288;52.194;5.676;2023-05-07T06:58:39;58.40;;;36.15;;
40541;SDS011;49288;52.194;5.676;2023-05-07T07:08:46;50.85;;;31.90;;
40541;SDS011;49288;52.194;5.676;2023-05-07T07:13:51;46.85;;;28.92;;
40541;SDS011;49288;52.194;5.676;2023-05-07T07:18:57;44.10;;;26.73;;
40541;SDS011;49288;52.194;5.676;2023-05-07T07:24:01;31.60;;;19.88;;
40541;SDS011;49288;52.194;5.676;2023-05-07T07:29:04;46.38;;;26.77;;
40541;SDS011;49288;52.194;5.676;2023-05-07T07:34:07;42.20;;;27.23;;
40541;SDS011;49288;52.194;5.676;2023-05-07T07:39:10;41.13;;;26.02;;
40541;SDS011;49288;52.194;5.676;2023-05-07T07:44:13;47.80;;;26.65;;
40541;SDS011;49288;52.194;5.676;2023-05-07T07:49:23;41.58;;;26.10;;
40541;SDS011;49288;52.194;5.676;2023-05-07T07:54:27;43.97;;;27.10;;
40541;SDS011;49288;52.194;5.676;2023-05-07T07:59:32;44.63;;;26.83;;
40541;SDS011;49288;52.194;5.676;2023-05-07T08:04:35;43.78;;;27.50;;
40541;SDS011;49288;52.194;5.676;2023-05-07T08:09:42;47.65;;;29.48;;
40541;SDS011;49288;52.194;5.676;2023-05-07T08:14:45;43.17;;;27.10;;
40541;SDS011;49288;52.194;5.676;2023-05-07T08:19:48;38.97;;;22.92;;
40541;SDS011;49288;52.194;5.676;2023-05-07T08:24:51;43.80;;;28.03;;
40541;SDS011;49288;52.194;5.676;2023-05-07T08:29:56;40.13;;;24.25;;
40541;SDS011;49288;52.194;5.676;2023-05-07T08:34:59;32.40;;;21.20;;
40541;SDS011;49288;52.194;5.676;2023-05-07T08:40:04;41.88;;;25.67;;
40541;SDS011;49288;52.194;5.676;2023-05-07T08:45:16;38.50;;;24.35;;
40541;SDS011;49288;52.194;5.676;2023-05-07T08:50:21;45.10;;;25.00;;
40541;SDS011;49288;52.194;5.676;2023-05-07T08:55:26;36.80;;;22.80;;
40541;SDS011;49288;52.194;5.676;2023-05-07T09:00:32;32.90;;;19.60;;
40541;SDS011;49288;52.194;5.676;2023-05-07T09:05:37;41.53;;;23.73;;
40541;SDS011;49288;52.194;5.676;2023-05-07T09:10:47;37.13;;;24.05;;
40541;SDS011;49288;52.194;5.676;2023-05-07T09:15:51;42.83;;;27.20;;
40541;SDS011;49288;52.194;5.676;2023-05-07T09:20:56;43.20;;;25.25;;
40541;SDS011;49288;52.194;5.676;2023-05-07T09:26:07;38.03;;;25.50;;
40541;SDS011;49288;52.194;5.676;2023-05-07T09:31:24;42.63;;;26.60;;
40541;SDS011;49288;52.194;5.676;2023-05-07T09:36:31;45.13;;;27.60;;
40541;SDS011;49288;52.194;5.676;2023-05-07T09:41:44;43.17;;;27.55;;
40541;SDS011;49288;52.194;5.676;2023-05-07T09:46:59;39.78;;;27.35;;
40541;SDS011;49288;52.194;5.676;2023-05-07T09:52:10;45.47;;;25.95;;
40541;SDS011;49288;52.194;5.676;2023-05-07T09:57:19;38.75;;;26.30;;
40541;SDS011;49288;52.194;5.676;2023-05-07T10:02:30;38.90;;;25.95;;
40541;SDS011;49288;52.194;5.676;2023-05-07T10:07:33;40.40;;;26.70;;
40541;SDS011;49288;52.194;5.676;2023-05-07T10:12:41;39.85;;;25.55;;
40541;SDS011;49288;52.194;5.676;2023-05-07T10:17:57;44.80;;;26.83;;
40541;SDS011;49288;52.194;5.676;2023-05-07T10:23:06;36.60;;;21.83;;
40541;SDS011;49288;52.194;5.676;2023-05-07T10:28:16;42.75;;;26.58;;
40541;SDS011;49288;52.194;5.676;2023-05-07T10:33:23;34.63;;;22.35;;
40541;SDS011;49288;52.194;5.676;2023-05-07T10:38:29;37.45;;;24.00;;
40541;SDS011;49288;52.194;5.676;2023-05-07T10:43:41;42.70;;;26.67;;
40541;SDS011;49288;52.194;5.676;2023-05-07T10:54:25;49.97;;;28.80;;
40541;SDS011;49288;52.194;5.676;2023-05-07T10:59:40;41.75;;;24.90;;
40541;SDS011;49288;52.194;5.676;2023-05-07T11:10:54;35.55;;;23.13;;
40541;SDS011;49288;52.194;5.676;2023-05-07T11:16:25;33.72;;;21.45;;
40541;SDS011;49288;52.194;5.676;2023-05-07T11:21:41;35.70;;;21.55;;
40541;SDS011;49288;52.194;5.676;2023-05-07T11:26:58;37.50;;;22.58;;
40541;SDS011;49288;52.194;5.676;2023-05-07T11:32:22;33.95;;;19.70;;
40541;SDS011;49288;52.194;5.676;2023-05-07T11:37:28;32.95;;;21.23;;
40541;SDS011;49288;52.194;5.676;2023-05-07T11:42:38;33.85;;;21.27;;
40541;SDS011;49288;52.194;5.676;2023-05-07T11:47:43;32.17;;;21.30;;
40541;SDS011;49288;52.194;5.676;2023-05-07T11:52:50;32.70;;;20.77;;
40541;SDS011;49288;52.194;5.676;2023-05-07T11:57:54;33.28;;;21.10;;
40541;SDS011;49288;52.194;5.676;2023-05-07T12:02:56;34.28;;;21.55;;
40541;SDS011;49288;52.194;5.676;2023-05-07T12:08:06;32.63;;;20.45;;
40541;SDS011;49288;52.194;5.676;2023-05-07T12:13:16;24.63;;;14.98;;
40541;SDS011;49288;52.194;5.676;2023-05-07T12:18:26;30.17;;;18.75;;
40541;SDS011;49288;52.194;5.676;2023-05-07T12:23:29;31.07;;;18.73;;
40541;SDS011;49288;52.194;5.676;2023-05-07T12:28:36;20.77;;;13.70;;
40541;SDS011;49288;52.194;5.676;2023-05-07T12:33:40;26.92;;;18.65;;
40541;SDS011;49288;52.194;5.676;2023-05-07T12:38:44;27.50;;;17.40;;
40541;SDS011;49288;52.194;5.676;2023-05-07T12:43:46;26.20;;;17.50;;
40541;SDS011;49288;52.194;5.676;2023-05-07T12:48:49;26.75;;;16.67;;
40541;SDS011;49288;52.194;5.676;2023-05-07T12:53:55;25.07;;;17.10;;
40541;SDS011;49288;52.194;5.676;2023-05-07T12:58:58;28.63;;;17.73;;
40541;SDS011;49288;52.194;5.676;2023-05-07T13:04:02;30.70;;;18.90;;
40541;SDS011;49288;52.194;5.676;2023-05-07T13:09:08;27.98;;;16.58;;
40541;SDS011;49288;52.194;5.676;2023-05-07T13:14:10;29.73;;;16.83;;
40541;SDS011;49288;52.194;5.676;2023-05-07T13:19:14;25.50;;;15.93;;
40541;SDS011;49288;52.194;5.676;2023-05-07T13:24:16;27.27;;;17.03;;
40541;SDS011;49288;52.194;5.676;2023-05-07T13:29:19;23.83;;;14.88;;
40541;SDS011;49288;52.194;5.676;2023-05-07T13:34:24;19.80;;;13.85;;
40541;SDS011;49288;52.194;5.676;2023-05-07T13:39:27;23.05;;;13.73;;
40541;SDS011;49288;52.194;5.676;2023-05-07T13:44:30;23.50;;;15.33;;
40541;SDS011;49288;52.194;5.676;2023-05-07T13:49:32;26.53;;;15.93;;
40541;SDS011;49288;52.194;5.676;2023-05-07T13:54:35;24.33;;;15.97;;
40541;SDS011;49288;52.194;5.676;2023-05-07T13:59:38;24.53;;;15.40;;
40541;SDS011;49288;52.194;5.676;2023-05-07T14:04:40;23.77;;;16.60;;
40541;SDS011;49288;52.194;5.676;2023-05-07T14:09:43;21.10;;;14.03;;
40541;SDS011;49288;52.194;5.676;2023-05-07T14:14:47;24.50;;;16.70;;
40541;SDS011;49288;52.194;5.676;2023-05-07T14:19:52;23.73;;;14.48;;
40541;SDS011;49288;52.194;5.676;2023-05-07T14:24:56;22.80;;;15.45;;
40541;SDS011;49288;52.194;5.676;2023-05-07T14:30:08;28.38;;;18.67;;
40541;SDS011;49288;52.194;5.676;2023-05-07T14:35:14;35.33;;;18.95;;
40541;SDS011;49288;52.194;5.676;2023-05-07T14:40:20;30.83;;;16.73;;
40541;SDS011;49288;52.194;5.676;2023-05-07T14:45:23;29.27;;;17.50;;
40541;SDS011;49288;52.194;5.676;2023-05-07T14:50:26;28.58;;;15.90;;
40541;SDS011;49288;52.194;5.676;2023-05-07T14:55:31;27.65;;;15.57;;
40541;SDS011;49288;52.194;5.676;2023-05-07T15:00:35;26.95;;;17.10;;
40541;SDS011;49288;52.194;5.676;2023-05-07T15:05:39;31.83;;;19.25;;
40541;SDS011;49288;52.194;5.676;2023-05-07T15:10:41;25.37;;;17.00;;
40541;SDS011;49288;52.194;5.676;2023-05-07T15:15:45;31.63;;;18.02;;
40541;SDS011;49288;52.194;5.676;2023-05-07T15:20:47;24.13;;;17.23;;
40541;SDS011;49288;52.194;5.676;2023-05-07T15:25:50;28.77;;;18.70;;
40541;SDS011;49288;52.194;5.676;2023-05-07T15:30:56;28.35;;;18.15;;
40541;SDS011;49288;52.194;5.676;2023-05-07T15:35:59;34.20;;;19.00;;
40541;SDS011;49288;52.194;5.676;2023-05-07T15:41:02;29.33;;;18.17;;
40541;SDS011;49288;52.194;5.676;2023-05-07T15:46:05;27.45;;;18.85;;
40541;SDS011;49288;52.194;5.676;2023-05-07T15:51:09;29.25;;;17.40;;
40541;SDS011;49288;52.194;5.676;2023-05-07T15:56:12;29.95;;;18.85;;
40541;SDS011;49288;52.194;5.676;2023-05-07T16:01:15;28.02;;;17.65;;
40541;SDS011;49288;52.194;5.676;2023-05-07T16:06:19;33.33;;;17.98;;
40541;SDS011;49288;52.194;5.676;2023-05-07T16:11:25;34.72;;;19.85;;
40541;SDS011;49288;52.194;5.676;2023-05-07T16:16:28;34.85;;;20.65;;
40541;SDS011;49288;52.194;5.676;2023-05-07T16:21:34;35.55;;;21.73;;
40541;SDS011;49288;52.194;5.676;2023-05-07T16:26:37;36.40;;;22.45;;
40541;SDS011;49288;52.194;5.676;2023-05-07T16:31:40;16.00;;;8.57;;
40541;SDS011;49288;52.194;5.676;2023-05-07T16:36:43;11.37;;;6.97;;
40541;SDS011;49288;52.194;5.676;2023-05-07T16:41:46;8.25;;;5.75;;
40541;SDS011;49288;52.194;5.676;2023-05-07T16:46:51;8.48;;;5.82;;
40541;SDS011;49288;52.194;5.676;2023-05-07T16:51:56;9.40;;;6.00;;
40541;SDS011;49288;52.194;5.676;2023-05-07T16:56:58;8.52;;;5.72;;
40541;SDS011;49288;52.194;5.676;2023-05-07T17:02:01;12.63;;;6.07;;
40541;SDS011;49288;52.194;5.676;2023-05-07T17:07:04;8.50;;;6.10;;
40541;SDS011;49288;52.194;5.676;2023-05-07T17:12:08;10.98;;;6.72;;
40541;SDS011;49288;52.194;5.676;2023-05-07T17:17:13;10.90;;;6.70;;
40541;SDS011;49288;52.194;5.676;2023-05-07T17:22:15;13.48;;;7.75;;
40541;SDS011;49288;52.194;5.676;2023-05-07T17:27:18;10.75;;;7.25;;
40541;SDS011;49288;52.194;5.676;2023-05-07T17:32:24;10.60;;;6.35;;
40541;SDS011;49288;52.194;5.676;2023-05-07T17:37:27;12.20;;;7.18;;
40541;SDS011;49288;52.194;5.676;2023-05-07T17:42:31;11.32;;;7.63;;
40541;SDS011;49288;52.194;5.676;2023-05-07T17:47:34;10.93;;;7.22;;
40541;SDS011;49288;52.194;5.676;2023-05-07T17:52:58;11.63;;;7.60;;
40541;SDS011;49288;52.194;5.676;2023-05-07T17:58:02;11.00;;;7.20;;
40541;SDS011;49288;52.194;5.676;2023-05-07T18:08:15;12.10;;;7.25;;
40541;SDS011;49288;52.194;5.676;2023-05-07T18:13:19;9.50;;;6.18;;
40541;SDS011;49288;52.194;5.676;2023-05-07T18:18:23;9.95;;;6.30;;
40541;SDS011;49288;52.194;5.676;2023-05-07T18:23:30;10.57;;;6.70;;
40541;SDS011;49288;52.194;5.676;2023-05-07T18:28:37;11.23;;;7.03;;
40541;SDS011;49288;52.194;5.676;2023-05-07T18:33:40;11.85;;;6.53;;
40541;SDS011;49288;52.194;5.676;2023-05-07T18:38:45;11.90;;;7.82;;
40541;SDS011;49288;52.194;5.676;2023-05-07T18:43:48;11.25;;;6.82;;
40541;SDS011;49288;52.194;5.676;2023-05-07T18:48:52;13.15;;;8.13;;
40541;SDS011;49288;52.194;5.676;2023-05-07T18:53:56;12.95;;;7.80;;
40541;SDS011;49288;52.194;5.676;2023-05-07T18:58:58;12.25;;;7.90;;
40541;SDS011;49288;52.194;5.676;2023-05-07T19:04:02;9.85;;;7.32;;
40541;SDS011;49288;52.194;5.676;2023-05-07T19:09:05;9.97;;;6.87;;
40541;SDS011;49288;52.194;5.676;2023-05-07T19:14:08;13.63;;;9.45;;
40541;SDS011;49288;52.194;5.676;2023-05-07T19:19:12;13.25;;;8.27;;
40541;SDS011;49288;52.194;5.676;2023-05-07T19:24:15;12.20;;;8.30;;
40541;SDS011;49288;52.194;5.676;2023-05-07T19:29:18;13.38;;;9.13;;
40541;SDS011;49288;52.194;5.676;2023-05-07T19:34:21;13.80;;;9.13;;
40541;SDS011;49288;52.194;5.676;2023-05-07T19:44:27;9.90;;;7.45;;
40541;SDS011;49288;52.194;5.676;2023-05-07T19:49:30;10.60;;;7.35;;
40541;SDS011;49288;52.194;5.676;2023-05-07T19:54:34;14.55;;;7.60;;
40541;SDS011;49288;52.194;5.676;2023-05-07T19:59:37;11.10;;;7.15;;
40541;SDS011;49288;52.194;5.676;2023-05-07T20:04:40;10.40;;;6.55;;
40541;SDS011;49288;52.194;5.676;2023-05-07T20:09:43;12.45;;;7.32;;
40541;SDS011;49288;52.194;5.676;2023-05-07T20:14:46;11.05;;;8.00;;
40541;SDS011;49288;52.194;5.676;2023-05-07T20:19:49;13.15;;;9.05;;
40541;SDS011;49288;52.194;5.676;2023-05-07T20:24:56;14.20;;;8.75;;
40541;SDS011;49288;52.194;5.676;2023-05-07T20:29:59;15.07;;;10.67;;
40541;SDS011;49288;52.194;5.676;2023-05-07T20:35:02;15.68;;;10.32;;
40541;SDS011;49288;52.194;5.676;2023-05-07T20:40:07;10.93;;;7.70;;
40541;SDS011;49288;52.194;5.676;2023-05-07T20:45:11;16.70;;;9.40;;
40541;SDS011;49288;52.194;5.676;2023-05-07T20:50:14;13.20;;;10.02;;
40541;SDS011;49288;52.194;5.676;2023-05-07T20:55:17;15.27;;;10.02;;
40541;SDS011;49288;52.194;5.676;2023-05-07T21:00:20;11.30;;;7.70;;
40541;SDS011;49288;52.194;5.676;2023-05-07T21:05:23;14.15;;;8.93;;
40541;SDS011;49288;52.194;5.676;2023-05-07T21:10:26;13.57;;;9.30;;
40541;SDS011;49288;52.194;5.676;2023-05-07T21:15:30;11.27;;;8.02;;
40541;SDS011;49288;52.194;5.676;2023-05-07T21:20:33;15.10;;;9.02;;
40541;SDS011;49288;52.194;5.676;2023-05-07T21:25:36;12.07;;;8.95;;
40541;SDS011;49288;52.194;5.676;2023-05-07T21:30:42;13.00;;;7.85;;
40541;SDS011;49288;52.194;5.676;2023-05-07T21:35:47;11.48;;;8.27;;
40541;SDS011;49288;52.194;5.676;2023-05-07T21:40:51;11.13;;;8.15;;
40541;SDS011;49288;52.194;5.676;2023-05-07T21:45:54;12.95;;;9.20;;
40541;SDS011;49288;52.194;5.676;2023-05-07T21:51:05;15.63;;;10.27;;
40541;SDS011;49288;52.194;5.676;2023-05-07T21:56:09;14.95;;;10.07;;
40541;SDS011;49288;52.194;5.676;2023-05-07T22:01:12;13.43;;;8.70;;
40541;SDS011;49288;52.194;5.676;2023-05-07T22:06:16;11.98;;;8.32;;
40541;SDS011;49288;52.194;5.676;2023-05-07T22:11:22;12.90;;;9.63;;
40541;SDS011;49288;52.194;5.676;2023-05-07T22:16:25;11.98;;;8.40;;
40541;SDS011;49288;52.194;5.676;2023-05-07T22:21:28;13.18;;;8.18;;
40541;SDS011;49288;52.194;5.676;2023-05-07T22:26:31;13.77;;;8.07;;
40541;SDS011;49288;52.194;5.676;2023-05-07T22:31:34;10.90;;;8.40;;
40541;SDS011;49288;52.194;5.676;2023-05-07T22:36:36;11.52;;;7.45;;
40541;SDS011;49288;52.194;5.676;2023-05-07T22:41:39;12.02;;;8.32;;
40541;SDS011;49288;52.194;5.676;2023-05-07T22:46:42;12.25;;;8.55;;
40541;SDS011;49288;52.194;5.676;2023-05-07T22:51:45;14.98;;;8.40;;
40541;SDS011;49288;52.194;5.676;2023-05-07T22:56:50;17.45;;;11.35;;
40541;SDS011;49288;52.194;5.676;2023-05-07T23:01:54;16.48;;;11.25;;
40541;SDS011;49288;52.194;5.676;2023-05-07T23:06:57;14.70;;;10.27;;
40541;SDS011;49288;52.194;5.676;2023-05-07T23:12:00;15.13;;;10.10;;
40541;SDS011;49288;52.194;5.676;2023-05-07T23:17:02;14.25;;;9.20;;
40541;SDS011;49288;52.194;5.676;2023-05-07T23:22:23;16.48;;;9.77;;
40541;SDS011;49288;52.194;5.676;2023-05-07T23:27:26;12.20;;;8.55;;
40541;SDS011;49288;52.194;5.676;2023-05-07T23:32:30;12.93;;;8.98;;
40541;SDS011;49288;52.194;5.676;2023-05-07T23:37:33;13.82;;;9.23;;
40541;SDS011;49288;52.194;5.676;2023-05-07T23:42:37;14.80;;;8.03;;
40541;SDS011;49288;52.194;5.676;2023-05-07T23:47:39;14.65;;;7.57;;
40541;SDS011;49288;52.194;5.676;2023-05-07T23:52:42;14.85;;;8.77;;
40541;SDS011;49288;52.194;5.676;2023-05-07T23:58:25;12.73;;;8.77;;
